^^
Saratoga-Weather Station Historical Data
Daily Summary for August 23, 2021 Units:  Metric    English   Both
Daily Weekly Monthly Yearly Custom
  High: Low: Average:
Temperature: 19.6 °C 6.1 °C 12.2 °C
Dew Point: 10.5 °C 5.1 °C 8.3 °C
Humidity: 95% 54% 79%
Wind Speed: 11.1km/h 0km/h 1.1km/h
Wind Gust: 17.7km/h - -
Wind- - SSE
Pressure: 1032.5 hPa 1027.1 hPa -
Precipitation: 0.0 mm    
Historical Graphs
 
 
Tabular Data for August 23, 2021
Time Temperature Dew Point Pressure Wind Wind Speed Wind Gust Humidity Rainfall Rate (Hourly) solar
00:04 8.2 °C 6.8 °C 1027.1 hPa Calm     91% 0.0 mm 0 W/m2
00:09 8.2 °C 6.8 °C 1027.1 hPa Calm     91% 0.0 mm 0 W/m2
00:14 8.2 °C 6.8 °C 1027.1 hPa Calm     91% 0.0 mm 0 W/m2
00:19 8.2 °C 6.8 °C 1027.1 hPa Calm     91% 0.0 mm 0 W/m2
00:24 8.2 °C 6.8 °C 1027.4 hPa Calm     91% 0.0 mm 0 W/m2
00:29 8.2 °C 6.8 °C 1027.4 hPa Calm     91% 0.0 mm 0 W/m2
00:34 8.2 °C 6.8 °C 1027.4 hPa Calm     91% 0.0 mm 0 W/m2
00:40 8.1 °C 6.7 °C 1027.4 hPa Calm     91% 0.0 mm 0 W/m2
00:59 8.1 °C 6.7 °C 1027.8 hPa Calm     91% 0.0 mm 0 W/m2
01:04 8.1 °C 6.7 °C 1027.8 hPa Calm     91% 0.0 mm 0 W/m2
01:09 8.1 °C 6.7 °C 1028.1 hPa Calm     91% 0.0 mm 0 W/m2
01:14 8.1 °C 6.7 °C 1028.1 hPa Calm     91% 0.0 mm 0 W/m2
01:19 8 °C 6.6 °C 1028.1 hPa Calm     91% 0.0 mm 0 W/m2
01:24 7.9 °C 6.5 °C 1028.1 hPa Calm     91% 0.0 mm 0 W/m2
01:29 7.9 °C 6.5 °C 1028.1 hPa Calm     91% 0.0 mm 0 W/m2
01:46 7.7 °C 6.3 °C 1028.5 hPa Calm     91% 0.0 mm 0 W/m2
01:51 7.7 °C 6.3 °C 1028.5 hPa Calm     91% 0.0 mm 0 W/m2
01:56 7.8 °C 6.6 °C 1028.1 hPa Calm   1.6 km/h 92% 0.0 mm 0 W/m2
02:01 7.9 °C 6.7 °C 1028.1 hPa Calm   1.6 km/h 92% 0.0 mm 0 W/m2
02:06 8 °C 6.8 °C 1028.1 hPa Calm     92% 0.0 mm 0 W/m2
02:11 8.1 °C 6.9 °C 1028.5 hPa Calm     92% 0.0 mm 0 W/m2
02:16 8.1 °C 6.7 °C 1028.5 hPa Calm     91% 0.0 mm 0 W/m2
02:21 8.1 °C 6.7 °C 1028.5 hPa Calm     91% 0.0 mm 0 W/m2
02:26 8.1 °C 6.7 °C 1028.5 hPa Calm     91% 0.0 mm 0 W/m2
02:47 8.1 °C 6.7 °C 1028.5 hPa Calm     91% 0.0 mm 0 W/m2
02:52 8.1 °C 6.7 °C 1028.5 hPa Calm     91% 0.0 mm 0 W/m2
02:57 8.1 °C 6.7 °C 1028.5 hPa Calm     91% 0.0 mm 0 W/m2
03:02 8.1 °C 6.7 °C 1028.5 hPa Calm     91% 0.0 mm 0 W/m2
03:07 8 °C 6.6 °C 1028.5 hPa Calm     91% 0.0 mm 0 W/m2
03:12 8 °C 6.6 °C 1028.5 hPa Calm     91% 0.0 mm 0 W/m2
03:17 8 °C 6.6 °C 1028.5 hPa Calm   1.6 km/h 91% 0.0 mm 0 W/m2
03:22 8.1 °C 6.7 °C 1028.8 hPa Calm     91% 0.0 mm 0 W/m2
03:27 8 °C 6.6 °C 1028.8 hPa Calm     91% 0.0 mm 0 W/m2
03:32 8 °C 6.6 °C 1028.8 hPa Calm     91% 0.0 mm 0 W/m2
03:37 8 °C 6.6 °C 1028.8 hPa Calm   1.6 km/h 91% 0.0 mm 0 W/m2
03:42 8.1 °C 6.7 °C 1028.8 hPa Calm     91% 0.0 mm 0 W/m2
03:47 8.1 °C 6.7 °C 1029.1 hPa Calm     91% 0.0 mm 0 W/m2
03:52 8 °C 6.6 °C 1029.1 hPa Calm     91% 0.0 mm 0 W/m2
03:57 7.9 °C 6.5 °C 1029.1 hPa Calm     91% 0.0 mm 0 W/m2
04:02 7.9 °C 6.5 °C 1029.1 hPa Calm     91% 0.0 mm 0 W/m2
04:07 7.9 °C 6.5 °C 1029.1 hPa Calm     91% 0.0 mm 0 W/m2
04:12 7.9 °C 6.5 °C 1029.1 hPa Calm     91% 0.0 mm 0 W/m2
04:17 7.9 °C 6.5 °C 1029.1 hPa Calm     91% 0.0 mm 0 W/m2
04:22 7.9 °C 6.5 °C 1029.5 hPa Calm     91% 0.0 mm 0 W/m2
04:27 7.9 °C 6.5 °C 1029.5 hPa Calm     91% 0.0 mm 0 W/m2
04:32 7.9 °C 6.5 °C 1029.5 hPa Calm     91% 0.0 mm 0 W/m2
04:37 7.8 °C 6.4 °C 1029.5 hPa Calm     91% 0.0 mm 0 W/m2
04:42 7.8 °C 6.4 °C 1029.5 hPa Calm     91% 0.0 mm 0 W/m2
04:47 7.8 °C 6.4 °C 1029.1 hPa Calm     91% 0.0 mm 0 W/m2
04:52 7.7 °C 6.3 °C 1029.5 hPa Calm     91% 0.0 mm 0 W/m2
04:57 7.7 °C 6.3 °C 1029.5 hPa Calm     91% 0.0 mm 0 W/m2
05:02 7.6 °C 6.1 °C 1029.5 hPa Calm     90% 0.0 mm 0 W/m2
05:07 7.5 °C 6.1 °C 1029.5 hPa Calm     91% 0.0 mm 0 W/m2
05:26 7.2 °C 5.8 °C 1029.5 hPa Calm     91% 0.0 mm 0 W/m2
05:31 7.1 °C 5.7 °C 1029.5 hPa Calm     91% 0.0 mm 0 W/m2
05:36 7.1 °C 5.9 °C 1029.8 hPa Calm     92% 0.0 mm 0 W/m2
05:41 7.1 °C 5.9 °C 1029.8 hPa Calm     92% 0.0 mm 0 W/m2
05:46 7.1 °C 5.9 °C 1029.8 hPa Calm     92% 0.0 mm 0 W/m2
05:51 7.1 °C 5.9 °C 1029.8 hPa Calm     92% 0.0 mm 0 W/m2
05:56 6.9 °C 5.7 °C 1029.8 hPa Calm     92% 0.0 mm 0 W/m2
06:01 6.9 °C 5.7 °C 1029.8 hPa Calm     92% 0.0 mm 0 W/m2
06:06 6.8 °C 5.6 °C 1030.1 hPa Calm     92% 0.0 mm 0 W/m2
06:11 6.7 °C 5.5 °C 1030.1 hPa Calm     92% 0.0 mm 0 W/m2
06:16 6.7 °C 5.5 °C 1030.1 hPa Calm     92% 0.0 mm 0 W/m2
06:21 6.6 °C 5.4 °C 1030.1 hPa Calm     92% 0.0 mm 0 W/m2
06:26 6.5 °C 5.3 °C 1030.1 hPa Calm     92% 0.0 mm 0 W/m2
06:31 6.4 °C 5.4 °C 1030.1 hPa Calm     93% 0.0 mm 0 W/m2
06:36 6.4 °C 5.4 °C 1030.1 hPa Calm     93% 0.0 mm 0 W/m2
06:41 6.4 °C 5.4 °C 1030.1 hPa Calm     93% 0.0 mm 0 W/m2
06:46 6.4 °C 5.4 °C 1030.1 hPa Calm     93% 0.0 mm 0 W/m2
06:51 6.3 °C 5.3 °C 1030.1 hPa Calm     93% 0.0 mm 0 W/m2
06:56 6.3 °C 5.3 °C 1030.1 hPa Calm     93% 0.0 mm 0 W/m2
07:01 6.2 °C 5.2 °C 1030.1 hPa Calm     93% 0.0 mm 0 W/m2
07:06 6.2 °C 5.2 °C 1030.5 hPa Calm     93% 0.0 mm 0 W/m2
07:11 6.1 °C 5.1 °C 1030.5 hPa Calm     93% 0.0 mm 0 W/m2
07:16 6.1 °C 5.2 °C 1030.5 hPa Calm     94% 0.0 mm 0 W/m2
07:21 6.1 °C 5.2 °C 1030.5 hPa Calm     94% 0.0 mm 0 W/m2
07:26 6.2 °C 5.3 °C 1030.5 hPa Calm     94% 0.0 mm 0 W/m2
07:31 6.2 °C 5.3 °C 1030.5 hPa Calm     94% 0.0 mm 0 W/m2
07:36 6.2 °C 5.3 °C 1030.5 hPa Calm     94% 0.0 mm 5 W/m2
07:41 6.2 °C 5.3 °C 1030.5 hPa Calm     94% 0.0 mm 7 W/m2
07:46 6.2 °C 5.3 °C 1030.5 hPa Calm     94% 0.0 mm 11 W/m2
07:51 6.2 °C 5.5 °C 1030.8 hPa ENE 3.2 km/h 3.2 km/h 95% 0.0 mm 16 W/m2
07:56 6.6 °C 5.9 °C 1030.8 hPa ENE 3.2 km/h 3.2 km/h 95% 0.0 mm 19 W/m2
08:01 6.7 °C 6 °C 1030.8 hPa Calm   1.6 km/h 95% 0.0 mm 25 W/m2
08:06 6.7 °C 5.8 °C 1030.8 hPa Calm     94% 0.0 mm 25 W/m2
08:11 6.7 °C 5.8 °C 1030.8 hPa Calm     94% 0.0 mm 25 W/m2
08:16 6.7 °C 5.8 °C 1030.8 hPa Calm     94% 0.0 mm 26 W/m2
08:21 6.7 °C 5.8 °C 1030.8 hPa Calm     94% 0.0 mm 33 W/m2
08:26 6.8 °C 5.9 °C 1031.2 hPa Calm     94% 0.0 mm 44 W/m2
08:31 6.8 °C 6.1 °C 1031.2 hPa Calm     95% 0.0 mm 56 W/m2
08:36 6.9 °C 6.2 °C 1031.2 hPa Calm     95% 0.0 mm 53 W/m2
08:41 7.1 °C 6.4 °C 1031.2 hPa Calm   1.6 km/h 95% 0.0 mm 51 W/m2
08:48 7.3 °C 6.6 °C 1031.2 hPa Calm     95% 0.0 mm 56 W/m2
08:53 7.6 °C 6.9 °C 1031.5 hPa Calm     95% 0.0 mm 63 W/m2
08:58 7.7 °C 6.8 °C 1031.5 hPa Calm     94% 0.0 mm 77 W/m2
09:03 7.9 °C 7.1 °C 1031.5 hPa Calm     95% 0.0 mm 76 W/m2
09:08 8.2 °C 7.3 °C 1031.8 hPa Calm     94% 0.0 mm 91 W/m2
09:13 8.4 °C 7.5 °C 1031.8 hPa Calm     94% 0.0 mm 100 W/m2
09:18 8.7 °C 7.6 °C 1031.8 hPa Calm     93% 0.0 mm 93 W/m2
09:23 8.9 °C 7.8 °C 1031.8 hPa Calm     93% 0.0 mm 104 W/m2
09:28 9.1 °C 7.9 °C 1031.8 hPa Calm     92% 0.0 mm 151 W/m2
09:33 9.3 °C 8.1 °C 1031.8 hPa Calm     92% 0.0 mm 125 W/m2
09:38 9.5 °C 8.1 °C 1031.8 hPa Calm     91% 0.0 mm 146 W/m2
09:43 9.7 °C 8.1 °C 1031.8 hPa Calm     90% 0.0 mm 169 W/m2
09:48 9.9 °C 8.2 °C 1031.8 hPa Calm     89% 0.0 mm 114 W/m2
09:53 10.1 °C 8.2 °C 1031.8 hPa Calm     88% 0.0 mm 155 W/m2
09:59 10.4 °C 8.3 °C 1031.8 hPa Calm     87% 0.0 mm 158 W/m2
10:04 10.6 °C 8.4 °C 1031.8 hPa Calm     86% 0.0 mm 111 W/m2
10:09 10.8 °C 8.4 °C 1032.2 hPa Calm     85% 0.0 mm 253 W/m2
10:14 11 °C 8.6 °C 1032.2 hPa Calm     85% 0.0 mm 269 W/m2
10:19 11.3 °C 8.9 °C 1032.2 hPa Calm     85% 0.0 mm 269 W/m2
10:24 11.6 °C 8.8 °C 1032.2 hPa Calm     83% 0.0 mm 279 W/m2
10:29 11.8 °C 9 °C 1032.2 hPa Calm     83% 0.0 mm 294 W/m2
10:34 12.4 °C 9.4 °C 1032.2 hPa East 4.7 km/h 6.4 km/h 82% 0.0 mm 288 W/m2
10:39 13.1 °C 9.4 °C 1032.2 hPa East 4.7 km/h 4.8 km/h 78% 0.0 mm 285 W/m2
10:44 13.7 °C 9.5 °C 1032.2 hPa ENE 3.2 km/h 4.8 km/h 76% 0.0 mm 276 W/m2
10:49 14.2 °C 9.6 °C 1032.2 hPa East 1.4 km/h 3.2 km/h 74% 0.0 mm 271 W/m2
10:54 14.6 °C 9.8 °C 1032.2 hPa Calm     73% 0.0 mm 250 W/m2
10:59 14.8 °C 9.6 °C 1032.2 hPa Calm   1.6 km/h 71% 0.0 mm 313 W/m2
11:04 15.2 °C 9.8 °C 1032.2 hPa Calm   4.8 km/h 70% 0.0 mm 352 W/m2
11:09 15.6 °C 9.9 °C 1032.2 hPa NE 3.2 km/h 4.8 km/h 69% 0.0 mm 360 W/m2
11:14 15.8 °C 9.9 °C 1032.2 hPa ENE 3.2 km/h 4.8 km/h 68% 0.0 mm 369 W/m2
11:19 16.2 °C 9.8 °C 1032.2 hPa SE 3.2 km/h 11.3 km/h 66% 0.0 mm 359 W/m2
11:24 16.4 °C 9.8 °C 1032.2 hPa WNW 1.4 km/h 6.4 km/h 65% 0.0 mm 287 W/m2
11:29 16.6 °C 10 °C 1032.2 hPa NE 3.2 km/h 6.4 km/h 65% 0.0 mm 248 W/m2
11:34 16.7 °C 9.9 °C 1032.2 hPa NW 4.7 km/h 6.4 km/h 64% 0.0 mm 225 W/m2
11:39 16.8 °C 10 °C 1032.5 hPa West 4.7 km/h 14.5 km/h 64% 0.0 mm 178 W/m2
11:44 16.8 °C 10 °C 1032.2 hPa ENE 3.2 km/h 4.8 km/h 64% 0.0 mm 220 W/m2
11:49 17.1 °C 10 °C 1032.5 hPa SE 1.4 km/h 3.2 km/h 63% 0.0 mm 185 W/m2
11:54 17.2 °C 10.1 °C 1032.2 hPa ENE 3.2 km/h 4.8 km/h 63% 0.0 mm 294 W/m2
11:59 17.2 °C 10.1 °C 1032.2 hPa NW 1.4 km/h 12.9 km/h 63% 0.0 mm 255 W/m2
12:04 17.2 °C 10.1 °C 1032.2 hPa NNE 3.2 km/h 8 km/h 63% 0.0 mm 285 W/m2
12:09 17.1 °C 10 °C 1032.2 hPa NE 1.4 km/h 12.9 km/h 63% 0.0 mm 265 W/m2
12:14 17.1 °C 10 °C 1032.2 hPa Calm   4.8 km/h 63% 0.0 mm 496 W/m2
12:19 17.3 °C 9.9 °C 1032.2 hPa NW 3.2 km/h 8 km/h 62% 0.0 mm 434 W/m2
12:24 17.3 °C 10.2 °C 1032.2 hPa ESE 1.4 km/h 3.2 km/h 63% 0.0 mm 403 W/m2
12:29 17.4 °C 10 °C 1031.8 hPa NNW 4.7 km/h 6.4 km/h 62% 0.0 mm 279 W/m2
12:34 17.5 °C 10.1 °C 1031.8 hPa SSE 6.4 km/h 6.4 km/h 62% 0.0 mm 445 W/m2
12:39 17.6 °C 10.2 °C 1031.8 hPa NW 3.2 km/h 6.4 km/h 62% 0.0 mm 279 W/m2
12:44 17.6 °C 10 °C 1031.8 hPa ESE 1.4 km/h 3.2 km/h 61% 0.0 mm 309 W/m2
12:49 17.7 °C 10.1 °C 1031.8 hPa WNW 3.2 km/h 12.9 km/h 61% 0.0 mm 285 W/m2
12:54 17.7 °C 10.1 °C 1031.8 hPa NE 1.4 km/h 4.8 km/h 61% 0.0 mm 304 W/m2
12:59 17.7 °C 10.1 °C 1031.8 hPa NW 3.2 km/h 6.4 km/h 61% 0.0 mm 408 W/m2
13:04 17.8 °C 10.2 °C 1031.8 hPa WNW 3.2 km/h 6.4 km/h 61% 0.0 mm 420 W/m2
13:09 17.9 °C 10 °C 1031.8 hPa NE 3.2 km/h 3.2 km/h 60% 0.0 mm 301 W/m2
13:14 17.9 °C 10 °C 1031.8 hPa NE 3.2 km/h 3.2 km/h 60% 0.0 mm 338 W/m2
13:19 18.1 °C 10.2 °C 1031.8 hPa WSW 6.4 km/h 12.9 km/h 60% 0.0 mm 234 W/m2
13:24 17.9 °C 9.8 °C 1031.8 hPa NNW 3.2 km/h 6.4 km/h 59% 0.0 mm 139 W/m2
13:29 17.9 °C 10 °C 1031.8 hPa NW 3.2 km/h 12.9 km/h 60% 0.0 mm 199 W/m2
13:34 18.1 °C 10.5 °C 1031.8 hPa NNW 3.2 km/h 9.7 km/h 61% 0.0 mm 155 W/m2
13:39 18.2 °C 10.1 °C 1031.8 hPa NW 1.4 km/h 12.9 km/h 59% 0.0 mm 165 W/m2
13:44 18.2 °C 10.3 °C 1031.5 hPa NE 4.7 km/h 6.4 km/h 60% 0.0 mm 199 W/m2
13:49 18.3 °C 10.1 °C 1031.8 hPa WSW 4.7 km/h 16.1 km/h 59% 0.0 mm 204 W/m2
13:54 18.3 °C 10.1 °C 1031.5 hPa NW 7.9 km/h 9.7 km/h 59% 0.0 mm 192 W/m2
13:59 18.3 °C 10.1 °C 1031.5 hPa ENE 1.4 km/h 17.7 km/h 59% 0.0 mm 200 W/m2
14:04 18.4 °C 10 °C 1031.5 hPa West 4.7 km/h 6.4 km/h 58% 0.0 mm 211 W/m2
14:09 18.4 °C 10.2 °C 1031.5 hPa West 3.2 km/h 12.9 km/h 59% 0.0 mm 186 W/m2
14:14 18.5 °C 10.3 °C 1031.2 hPa Calm   4.8 km/h 59% 0.0 mm 176 W/m2
14:19 18.6 °C 10.2 °C 1031.2 hPa NNE 6.4 km/h 12.9 km/h 58% 0.0 mm 213 W/m2
14:24 18.7 °C 10.3 °C 1031.2 hPa West 4.7 km/h 8 km/h 58% 0.0 mm 239 W/m2
14:29 18.7 °C 10.3 °C 1031.2 hPa Calm   4.8 km/h 58% 0.0 mm 211 W/m2
14:34 18.8 °C 10.4 °C 1031.2 hPa East 4.7 km/h 9.7 km/h 58% 0.0 mm 278 W/m2
14:39 18.9 °C 10.2 °C 1031.2 hPa NW 6.4 km/h 6.4 km/h 57% 0.0 mm 299 W/m2
14:44 18.9 °C 10.2 °C 1031.2 hPa NNW 1.4 km/h 4.8 km/h 57% 0.0 mm 214 W/m2
14:49 19 °C 10.3 °C 1031.2 hPa NNE 1.4 km/h 9.7 km/h 57% 0.0 mm 192 W/m2
14:54 19 °C 10.3 °C 1030.8 hPa NW 3.2 km/h 8 km/h 57% 0.0 mm 139 W/m2
14:59 19 °C 10.3 °C 1030.8 hPa NE 4.7 km/h 6.4 km/h 57% 0.0 mm 146 W/m2
15:04 19.1 °C 10.4 °C 1030.8 hPa East 6.4 km/h 9.7 km/h 57% 0.0 mm 151 W/m2
15:09 19.1 °C 10.1 °C 1030.8 hPa North 1.4 km/h 3.2 km/h 56% 0.0 mm 139 W/m2
15:14 19.2 °C 10.2 °C 1030.8 hPa North 1.4 km/h 6.4 km/h 56% 0.0 mm 123 W/m2
15:19 19.3 °C 10.3 °C 1030.8 hPa North 7.9 km/h 8 km/h 56% 0.0 mm 141 W/m2
15:24 19.2 °C 9.9 °C 1030.8 hPa NE 1.4 km/h 8 km/h 55% 0.0 mm 139 W/m2
15:29 19.3 °C 10 °C 1030.8 hPa East 6.4 km/h 12.9 km/h 55% 0.0 mm 118 W/m2
15:34 19.3 °C 10 °C 1030.8 hPa ENE 1.4 km/h 6.4 km/h 55% 0.0 mm 163 W/m2
15:39 19.4 °C 9.9 °C 1030.8 hPa WNW 3.2 km/h 12.9 km/h 54% 0.0 mm 109 W/m2
15:44 19.4 °C 10.1 °C 1030.8 hPa West 6.4 km/h 11.3 km/h 55% 0.0 mm 111 W/m2
15:49 19.4 °C 10.1 °C 1030.5 hPa NW 1.4 km/h 3.2 km/h 55% 0.0 mm 135 W/m2
15:54 19.4 °C 10.1 °C 1030.5 hPa Calm   4.8 km/h 55% 0.0 mm 144 W/m2
16:00 19.4 °C 10.1 °C 1030.5 hPa North 4.7 km/h 6.4 km/h 55% 0.0 mm 128 W/m2
16:05 19.5 °C 9.9 °C 1030.5 hPa Calm   8 km/h 54% 0.0 mm 135 W/m2
16:10 19.5 °C 9.9 °C 1030.5 hPa Calm   4.8 km/h 54% 0.0 mm 118 W/m2
16:15 19.5 °C 9.9 °C 1030.5 hPa North 3.2 km/h 6.4 km/h 54% 0.0 mm 141 W/m2
16:20 19.6 °C 10 °C 1030.5 hPa West 9.7 km/h 9.7 km/h 54% 0.0 mm 172 W/m2
16:25 19.6 °C 10 °C 1030.5 hPa Calm   1.6 km/h 54% 0.0 mm 156 W/m2
16:30 19.6 °C 10 °C 1030.5 hPa NE 6.4 km/h 6.4 km/h 54% 0.0 mm 128 W/m2
16:35 19.4 °C 10.1 °C 1030.5 hPa ENE 3.2 km/h 6.4 km/h 55% 0.0 mm 91 W/m2
16:40 19.3 °C 10.3 °C 1030.5 hPa East 3.2 km/h 3.2 km/h 56% 0.0 mm 70 W/m2
16:45 19.2 °C 10.5 °C 1030.1 hPa ESE 11.1 km/h 12.9 km/h 57% 0.0 mm 65 W/m2
16:50 19 °C 10.5 °C 1030.5 hPa ENE 4.7 km/h 12.9 km/h 58% 0.0 mm 62 W/m2
16:55 18.9 °C 10.5 °C 1030.5 hPa SE 6.4 km/h 9.7 km/h 58% 0.0 mm 60 W/m2
17:00 18.8 °C 10.4 °C 1030.5 hPa East 4.7 km/h 8 km/h 58% 0.0 mm 56 W/m2
17:05 18.7 °C 10.5 °C 1030.5 hPa East 3.2 km/h 4.8 km/h 59% 0.0 mm 53 W/m2
17:10 18.6 °C 10.4 °C 1030.5 hPa East 1.4 km/h 8 km/h 59% 0.0 mm 49 W/m2
17:15 18.4 °C 10.5 °C 1030.5 hPa ENE 3.2 km/h 3.2 km/h 60% 0.0 mm 46 W/m2
17:20 18.3 °C 10.4 °C 1030.5 hPa NW 1.4 km/h 1.6 km/h 60% 0.0 mm 42 W/m2
17:25 18.1 °C 10.5 °C 1030.5 hPa Calm   3.2 km/h 61% 0.0 mm 39 W/m2
17:30 17.9 °C 10.3 °C 1030.8 hPa Calm   6.4 km/h 61% 0.0 mm 33 W/m2
17:35 17.8 °C 10.2 °C 1030.5 hPa Calm   3.2 km/h 61% 0.0 mm 30 W/m2
17:40 17.7 °C 10.1 °C 1030.5 hPa Calm   4.8 km/h 61% 0.0 mm 25 W/m2
17:45 17.6 °C 10.2 °C 1030.5 hPa Calm     62% 0.0 mm 21 W/m2
17:50 17.4 °C 10.3 °C 1030.5 hPa Calm   4.8 km/h 63% 0.0 mm 16 W/m2
17:55 17.1 °C 10.2 °C 1030.8 hPa Calm   1.6 km/h 64% 0.0 mm 12 W/m2
18:00 16.7 °C 10.1 °C 1030.8 hPa Calm     65% 0.0 mm 9 W/m2
18:05 16.2 °C 9.8 °C 1030.8 hPa Calm   1.6 km/h 66% 0.0 mm 7 W/m2
18:10 15.9 °C 9.8 °C 1031.2 hPa Calm     67% 0.0 mm 5 W/m2
18:15 15.6 °C 9.7 °C 1031.2 hPa Calm   1.6 km/h 68% 0.0 mm 0 W/m2
18:20 15.2 °C 9.8 °C 1031.2 hPa Calm   1.6 km/h 70% 0.0 mm 0 W/m2
18:25 14.9 °C 9.7 °C 1031.2 hPa Calm     71% 0.0 mm 0 W/m2
18:30 14.7 °C 9.7 °C 1031.2 hPa Calm     72% 0.0 mm 0 W/m2
18:35 14.4 °C 9.4 °C 1031.2 hPa Calm     72% 0.0 mm 0 W/m2
18:40 14.2 °C 9.4 °C 1031.2 hPa Calm   3.2 km/h 73% 0.0 mm 0 W/m2
18:45 14.1 °C 9.5 °C 1031.2 hPa Calm     74% 0.0 mm 0 W/m2
18:50 13.9 °C 9.3 °C 1031.2 hPa Calm   3.2 km/h 74% 0.0 mm 0 W/m2
18:55 13.7 °C 9.3 °C 1031.5 hPa Calm   1.6 km/h 75% 0.0 mm 0 W/m2
19:00 13.6 °C 9.3 °C 1031.5 hPa Calm     75% 0.0 mm 0 W/m2
19:05 13.5 °C 9.4 °C 1031.8 hPa Calm   1.6 km/h 76% 0.0 mm 0 W/m2
19:10 13.3 °C 9.4 °C 1031.8 hPa East 3.2 km/h 3.2 km/h 77% 0.0 mm 0 W/m2
19:15 13.2 °C 9.3 °C 1031.8 hPa Calm   1.6 km/h 77% 0.0 mm 0 W/m2
19:20 13.1 °C 9.4 °C 1031.8 hPa Calm   1.6 km/h 78% 0.0 mm 0 W/m2
19:25 12.9 °C 9.2 °C 1031.8 hPa Calm   1.6 km/h 78% 0.0 mm 0 W/m2
19:30 12.8 °C 9.2 °C 1031.8 hPa East 1.4 km/h 1.6 km/h 79% 0.0 mm 0 W/m2
19:35 12.8 °C 9.2 °C 1031.8 hPa Calm   1.6 km/h 79% 0.0 mm 0 W/m2
19:40 12.8 °C 9.2 °C 1031.8 hPa Calm   3.2 km/h 79% 0.0 mm 0 W/m2
19:45 12.7 °C 9.2 °C 1031.8 hPa Calm   1.6 km/h 79% 0.0 mm 0 W/m2
19:50 12.7 °C 9.3 °C 1031.8 hPa Calm   3.2 km/h 80% 0.0 mm 0 W/m2
19:55 12.6 °C 9.2 °C 1031.8 hPa South 1.4 km/h 3.2 km/h 80% 0.0 mm 0 W/m2
20:00 12.6 °C 9.2 °C 1031.8 hPa Calm     80% 0.0 mm 0 W/m2
20:05 12.6 °C 9.2 °C 1031.8 hPa Calm   3.2 km/h 80% 0.0 mm 0 W/m2
20:10 12.6 °C 9.2 °C 1031.8 hPa Calm   3.2 km/h 80% 0.0 mm 0 W/m2
20:15 12.5 °C 9.1 °C 1031.8 hPa Calm   3.2 km/h 80% 0.0 mm 0 W/m2
20:20 12.4 °C 9 °C 1031.8 hPa Calm   3.2 km/h 80% 0.0 mm 0 W/m2
20:25 12.3 °C 8.9 °C 1031.8 hPa Calm     80% 0.0 mm 0 W/m2
20:30 12.3 °C 9.1 °C 1031.8 hPa WNW 1.4 km/h 1.6 km/h 81% 0.0 mm 0 W/m2
20:35 12.3 °C 9.1 °C 1031.8 hPa WNW 3.2 km/h 4.8 km/h 81% 0.0 mm 0 W/m2
20:40 12.2 °C 9 °C 1031.8 hPa Calm   1.6 km/h 81% 0.0 mm 0 W/m2
20:45 12.1 °C 8.9 °C 1031.8 hPa Calm   4.8 km/h 81% 0.0 mm 0 W/m2
20:50 12 °C 8.8 °C 1031.8 hPa Calm   1.6 km/h 81% 0.0 mm 0 W/m2
20:55 11.9 °C 8.9 °C 1031.8 hPa Calm   1.6 km/h 82% 0.0 mm 0 W/m2
21:00 11.9 °C 8.9 °C 1031.8 hPa Calm     82% 0.0 mm 0 W/m2
21:05 11.8 °C 8.8 °C 1031.8 hPa Calm   3.2 km/h 82% 0.0 mm 0 W/m2
21:10 11.7 °C 8.7 °C 1031.8 hPa Calm     82% 0.0 mm 0 W/m2
21:15 11.7 °C 8.9 °C 1031.8 hPa Calm   3.2 km/h 83% 0.0 mm 0 W/m2
21:20 11.6 °C 8.8 °C 1031.8 hPa Calm     83% 0.0 mm 0 W/m2
21:25 11.5 °C 8.7 °C 1031.8 hPa Calm     83% 0.0 mm 0 W/m2
21:30 11.4 °C 8.6 °C 1031.8 hPa Calm     83% 0.0 mm 0 W/m2
21:35 11.3 °C 8.7 °C 1031.8 hPa Calm   3.2 km/h 84% 0.0 mm 0 W/m2
21:40 11.3 °C 8.7 °C 1031.8 hPa Calm   1.6 km/h 84% 0.0 mm 0 W/m2
21:45 11.2 °C 8.6 °C 1031.8 hPa Calm   1.6 km/h 84% 0.0 mm 0 W/m2
21:50 11.2 °C 8.6 °C 1031.8 hPa Calm   1.6 km/h 84% 0.0 mm 0 W/m2
21:55 11.1 °C 8.7 °C 1031.8 hPa WSW 1.4 km/h 1.6 km/h 85% 0.0 mm 0 W/m2
22:00 11 °C 8.6 °C 1032.2 hPa Calm   3.2 km/h 85% 0.0 mm 0 W/m2
22:05 11 °C 8.6 °C 1032.2 hPa WSW 1.4 km/h 3.2 km/h 85% 0.0 mm 0 W/m2
22:10 11 °C 8.6 °C 1032.2 hPa Calm   1.6 km/h 85% 0.0 mm 0 W/m2
22:15 11 °C 8.6 °C 1032.2 hPa WSW 3.2 km/h 3.2 km/h 85% 0.0 mm 0 W/m2
22:20 10.9 °C 8.5 °C 1032.2 hPa Calm     85% 0.0 mm 0 W/m2
22:25 10.8 °C 8.4 °C 1032.2 hPa Calm     85% 0.0 mm 0 W/m2
22:30 10.7 °C 8.5 °C 1032.2 hPa Calm     86% 0.0 mm 0 W/m2
22:35 10.7 °C 8.5 °C 1032.2 hPa Calm     86% 0.0 mm 0 W/m2
22:40 10.6 °C 8.4 °C 1032.2 hPa Calm     86% 0.0 mm 0 W/m2
22:45 10.5 °C 8.3 °C 1032.2 hPa Calm     86% 0.0 mm 0 W/m2
22:50 10.4 °C 8.2 °C 1032.2 hPa Calm     86% 0.0 mm 0 W/m2
22:55 10.4 °C 8.2 °C 1032.2 hPa Calm     86% 0.0 mm 0 W/m2
23:00 10.3 °C 8.2 °C 1032.2 hPa Calm     87% 0.0 mm 0 W/m2
23:05 10.2 °C 8.1 °C 1032.2 hPa Calm     87% 0.0 mm 0 W/m2
23:10 10.1 °C 8 °C 1032.2 hPa Calm     87% 0.0 mm 0 W/m2
23:15 10 °C 8.1 °C 1032.2 hPa Calm     88% 0.0 mm 0 W/m2
23:21 9.9 °C 8 °C 1032.2 hPa Calm     88% 0.0 mm 0 W/m2
23:26 9.9 °C 8 °C 1031.8 hPa Calm     88% 0.0 mm 0 W/m2
23:31 9.8 °C 7.9 °C 1032.2 hPa Calm     88% 0.0 mm 0 W/m2
23:36 9.8 °C 8.1 °C 1032.2 hPa Calm     89% 0.0 mm 0 W/m2
23:41 9.8 °C 8.1 °C 1032.2 hPa Calm   1.6 km/h 89% 0.0 mm 0 W/m2
23:46 9.8 °C 8.1 °C 1032.2 hPa Calm     89% 0.0 mm 0 W/m2
23:51 9.8 °C 8.1 °C 1032.2 hPa Calm     89% 0.0 mm 0 W/m2
23:56 9.8 °C 8.2 °C 1032.2 hPa Calm     90% 0.0 mm 0 W/m2
Juneau County Weather
Compliments of Weather Underground - 4 mb